createdAt,value
2023-02-28T00:04:21.388Z,9.20
2023-02-28T00:09:23.582Z,9.40
2023-02-28T00:14:25.900Z,9.30
2023-02-28T00:19:28.115Z,9.20
2023-02-28T00:24:30.348Z,9.30
2023-02-28T00:29:32.576Z,9.10
2023-02-28T00:34:38.714Z,9.20
2023-02-28T00:39:41.848Z,9.20
2023-02-28T00:44:44.077Z,9.30
2023-02-28T00:49:47.510Z,9.20
2023-02-28T00:54:49.850Z,8.90
2023-02-28T00:59:52.122Z,8.80
2023-02-28T01:04:54.843Z,9.00
2023-02-28T01:09:57.164Z,9.20
2023-02-28T01:15:01.140Z,9.10
2023-02-28T01:20:03.800Z,9.00
2023-02-28T01:25:06.909Z,8.90
2023-02-28T01:30:10.749Z,9.00
2023-02-28T01:35:13.012Z,8.70
2023-02-28T01:40:15.787Z,8.70
2023-02-28T01:50:39.838Z,8.70
2023-02-28T01:55:46.201Z,8.70
2023-02-28T02:00:48.980Z,8.40
2023-02-28T02:05:51.419Z,8.60
2023-02-28T02:10:57.165Z,8.50
2023-02-28T02:37:17.357Z,8.40
2023-02-28T02:42:29.323Z,8.60
2023-02-28T02:47:33.062Z,8.40
2023-02-28T02:52:40.914Z,8.10
2023-02-28T03:02:56.952Z,7.80
2023-02-28T03:07:59.295Z,7.70
2023-02-28T03:19:07.113Z,7.70
2023-02-28T03:24:18.856Z,7.50
2023-02-28T03:29:35.367Z,7.50
2023-02-28T03:34:43.940Z,7.40
2023-02-28T03:39:50.876Z,7.40
2023-02-28T03:45:00.016Z,7.40
2023-02-28T03:50:10.093Z,7.40
2023-02-28T03:55:15.389Z,7.20
2023-02-28T04:00:27.569Z,7.10
2023-02-28T04:05:30.586Z,7.00
2023-02-28T04:10:33.010Z,7.00
2023-02-28T04:15:35.312Z,7.00
2023-02-28T04:20:37.782Z,6.90
2023-02-28T04:25:41.440Z,6.70
2023-02-28T04:30:43.662Z,6.90
2023-02-28T04:35:45.904Z,7.20
2023-02-28T04:40:48.128Z,7.10
2023-02-28T04:45:50.343Z,7.40
2023-02-28T04:50:53.292Z,7.40
2023-02-28T04:55:55.766Z,7.20
2023-02-28T05:01:13.700Z,6.90
2023-02-28T05:06:16.738Z,7.10
2023-02-28T05:11:26.817Z,7.10
2023-02-28T05:16:29.072Z,7.20
2023-02-28T05:21:35.208Z,7.20
2023-02-28T05:26:39.480Z,7.00
2023-02-28T05:31:41.692Z,6.90
2023-02-28T05:36:44.381Z,7.00
2023-02-28T05:41:46.599Z,6.80
2023-02-28T05:46:48.908Z,6.80
2023-02-28T05:51:51.118Z,6.80
2023-02-28T05:56:53.395Z,7.20
2023-02-28T06:01:56.454Z,7.60
2023-02-28T06:06:58.689Z,7.90
2023-02-28T06:12:04.058Z,7.90
2023-02-28T06:17:06.385Z,7.70
2023-02-28T06:22:08.633Z,7.30
2023-02-28T06:27:10.938Z,7.30
2023-02-28T06:32:13.254Z,7.40
2023-02-28T06:37:15.562Z,7.40
2023-02-28T06:42:17.873Z,7.40
2023-02-28T06:47:20.109Z,7.60
2023-02-28T06:52:23.222Z,7.60
2023-02-28T06:57:26.238Z,7.50
2023-02-28T07:02:28.918Z,7.30
2023-02-28T07:07:31.400Z,7.20
2023-02-28T07:12:34.142Z,7.20
2023-02-28T07:17:36.366Z,7.20
2023-02-28T07:22:39.692Z,7.20
2023-02-28T07:27:42.342Z,7.40
2023-02-28T07:32:45.349Z,7.40
2023-02-28T17:43:05.395Z,1.20
2023-02-28T17:48:12.367Z,1.60
2023-02-28T17:53:14.545Z,2.70
2023-02-28T17:58:16.903Z,3.60
2023-02-28T18:03:20.857Z,4.30
2023-02-28T18:08:23.242Z,4.60
2023-02-28T18:13:25.482Z,4.90
2023-02-28T18:18:27.746Z,5.10
2023-02-28T18:23:30.015Z,5.10
2023-02-28T18:28:34.843Z,5.30
2023-02-28T18:33:37.137Z,5.50
2023-02-28T18:38:39.840Z,5.60
2023-02-28T18:43:42.099Z,5.60
2023-02-28T18:48:44.744Z,5.70
2023-02-28T18:53:47.305Z,5.50
2023-02-28T19:13:55.105Z,5.50
2023-02-28T19:19:22.577Z,6.00
2023-02-28T19:24:25.011Z,6.20
2023-02-28T19:29:27.276Z,6.40
2023-02-28T19:34:29.909Z,6.40
2023-02-28T19:39:41.067Z,6.40
2023-02-28T19:44:44.102Z,6.60
2023-02-28T19:49:46.398Z,6.60
2023-02-28T19:54:48.897Z,6.40
2023-02-28T19:59:52.066Z,6.50
2023-02-28T20:04:55.049Z,6.70
2023-02-28T20:09:57.599Z,6.80
2023-02-28T20:15:02.284Z,7.00
2023-02-28T20:20:05.143Z,6.90
2023-02-28T20:25:08.267Z,6.90
2023-02-28T20:30:11.179Z,6.70
2023-02-28T20:35:13.508Z,6.70
2023-02-28T20:40:15.865Z,6.60
2023-02-28T20:45:18.070Z,6.50
2023-02-28T20:50:20.586Z,6.40
2023-02-28T20:55:22.903Z,6.40
2023-02-28T21:00:26.457Z,6.40
2023-02-28T21:05:29.116Z,6.40
2023-02-28T21:10:32.353Z,6.40
2023-02-28T21:15:38.475Z,6.50
2023-02-28T21:20:40.745Z,6.50
2023-02-28T21:25:43.000Z,6.40
2023-02-28T21:30:45.401Z,6.50
2023-02-28T21:35:47.695Z,6.70
2023-02-28T21:40:51.437Z,6.60
2023-02-28T21:45:53.673Z,6.70
2023-02-28T21:50:58.643Z,6.70
2023-02-28T21:56:02.854Z,6.60
2023-02-28T22:01:10.498Z,6.60
2023-02-28T22:11:26.403Z,6.40
2023-02-28T22:16:35.199Z,6.70
2023-02-28T22:21:42.137Z,6.80
2023-02-28T22:26:44.425Z,6.50
2023-02-28T22:31:47.072Z,6.30
2023-02-28T22:36:49.439Z,6.40
2023-02-28T22:41:55.201Z,6.40
2023-02-28T22:46:57.426Z,6.40
2023-02-28T22:51:59.665Z,6.50
2023-02-28T22:57:02.091Z,6.60
2023-02-28T23:02:04.294Z,6.40
2023-02-28T23:07:06.488Z,6.50
2023-02-28T23:12:08.761Z,6.40
2023-02-28T23:17:10.996Z,6.50
2023-02-28T23:22:13.214Z,6.30
2023-02-28T23:27:15.427Z,6.20
2023-02-28T23:32:17.749Z,6.10
2023-02-28T23:37:20.013Z,6.10
2023-02-28T23:42:22.720Z,5.90
2023-02-28T23:47:25.009Z,6.00
2023-02-28T23:52:27.287Z,6.00
2023-02-28T23:57:29.824Z,6.20
